Time;durP1;ratioP1;P1;durP2;ratioP2;P2;SDS_P1;SDS_P2;PMS_P1;PMS_P2;Temp;Humidity;BMP_temperature;BMP_pressure;BME280_temperature;BME280_humidity;BME280_pressure;Samples;Min_cycle;Max_cycle;Signal;HPM_P1;HPM_P2
2024/01/24 00:01:21;;;;;;;;;0.00;0.00;;;;;13.78;93.79;102117.81;4993276;28;46215;-38
2024/01/24 00:03:46;;;;;;;;;0.00;0.00;;;;;13.79;93.86;102122.16;4993724;28;45338;-39
2024/01/24 00:06:12;;;;;;;;;1.00;0.00;;;;;13.79;93.72;102132.03;5078535;27;45442;-38
2024/01/24 00:08:37;;;;;;;;;3.33;0.00;;;;;13.80;93.61;102134.56;4993777;28;45361;-39
2024/01/24 00:11:03;;;;;;;;;0.00;0.00;;;;;13.82;93.21;102134.41;4995614;28;45270;-39
2024/01/24 00:13:28;;;;;;;;;0.00;0.00;;;;;13.83;93.22;102134.28;4996241;28;45338;-40
2024/01/24 00:15:53;;;;;;;;;0.00;0.00;;;;;13.83;93.04;102144.16;4996559;28;45410;-40
2024/01/24 00:18:19;;;;;;;;;0.00;0.00;;;;;13.83;92.79;102136.13;4996417;28;45688;-39
2024/01/24 00:20:44;;;;;;;;;0.00;0.00;;;;;13.85;92.96;102152.88;5013024;27;47652;-39
2024/01/24 00:23:10;;;;;;;;;0.00;0.00;;;;;13.86;92.53;102146.53;4996251;28;45206;-39
2024/01/24 00:25:35;;;;;;;;;0.33;0.00;;;;;13.88;92.49;102147.25;4996245;28;45309;-40
2024/01/24 00:28:00;;;;;;;;;0.00;0.00;;;;;13.88;92.49;102139.25;4996365;28;45291;-40
2024/01/24 00:30:26;;;;;;;;;1.00;0.00;;;;;13.87;92.26;102137.56;4995775;28;53441;-40
2024/01/24 00:32:51;;;;;;;;;0.00;0.00;;;;;13.86;92.05;102136.72;4996327;28;45309;-39
2024/01/24 00:35:16;;;;;;;;;1.33;0.00;;;;;13.81;92.27;102140.75;4996460;28;45339;-39
2024/01/24 00:37:42;;;;;;;;;0.00;0.00;;;;;13.88;92.02;102134.72;4996319;28;45532;-40
2024/01/24 00:40:08;;;;;;;;;1.33;0.00;;;;;13.86;92.17;102130.47;4996146;28;45638;-40
2024/01/24 00:42:33;;;;;;;;;0.00;0.00;;;;;13.88;92.17;102129.38;4995909;28;45481;-39
2024/01/24 00:44:59;;;;;;;;;0.67;0.00;;;;;13.85;92.11;102134.16;4996215;28;45404;-40
2024/01/24 00:47:24;;;;;;;;;0.00;0.00;;;;;13.82;92.07;102142.44;4996191;28;45373;-39
2024/01/24 00:49:49;;;;;;;;;0.00;0.00;;;;;13.85;92.24;102143.00;4995827;28;46308;-40
2024/01/24 00:52:15;;;;;;;;;0.00;0.00;;;;;13.85;92.03;102131.47;4995940;28;45387;-40
2024/01/24 00:54:40;;;;;;;;;0.00;0.00;;;;;13.90;91.95;102156.00;4996145;28;45390;-40
2024/01/24 00:57:05;;;;;;;;;0.00;0.00;;;;;13.92;91.92;102151.38;4994612;28;45553;-39
2024/01/24 00:59:31;;;;;;;;;0.00;0.00;;;;;13.92;92.36;102159.38;4996311;28;46192;-40
2024/01/24 01:01:56;;;;;;;;;0.00;0.00;;;;;13.84;92.33;102140.47;4995815;28;45349;-40
2024/01/24 01:04:22;;;;;;;;;0.00;0.00;;;;;13.93;92.14;102155.72;4996013;28;45273;-40
2024/01/24 01:06:47;;;;;;;;;0.00;0.00;;;;;13.93;92.05;102147.69;4996197;28;45320;-40
2024/01/24 01:09:12;;;;;;;;;0.00;0.00;;;;;13.91;92.71;102149.69;4995554;28;47268;-39
2024/01/24 01:11:38;;;;;;;;;0.00;0.00;;;;;13.90;92.60;102154.16;4995566;28;45371;-40
2024/01/24 01:14:04;;;;;;;;;0.00;0.00;;;;;13.91;92.21;102155.88;4996035;28;45318;-40
2024/01/24 01:16:29;;;;;;;;;0.00;0.00;;;;;13.91;92.66;102150.53;4994537;28;45617;-39
2024/01/24 01:18:55;;;;;;;;;0.00;0.00;;;;;13.94;92.72;102160.09;4995609;28;46695;-39
2024/01/24 01:21:20;;;;;;;;;0.00;0.00;;;;;13.92;93.04;102146.00;4994793;28;45370;-39
2024/01/24 01:23:45;;;;;;;;;0.00;0.00;;;;;13.88;93.54;102147.25;5080897;27;45329;-39
2024/01/24 01:26:11;;;;;;;;;0.00;0.00;;;;;13.92;93.08;102159.38;4995820;28;45413;-40
2024/01/24 01:28:36;;;;;;;;;0.00;0.00;;;;;13.94;93.53;102168.13;4995559;28;46516;-38
2024/01/24 01:31:02;;;;;;;;;0.00;0.00;;;;;13.91;93.77;102155.03;4995548;28;45379;-38
2024/01/24 01:33:27;;;;;;;;;0.00;0.00;;;;;13.88;94.52;102163.31;4994244;28;45355;-40
2024/01/24 01:35:53;;;;;;;;;0.00;0.00;;;;;13.83;94.83;102144.16;4995735;28;45524;-40
2024/01/24 01:38:18;;;;;;;;;0.00;0.00;;;;;13.76;95.84;102130.44;4995329;28;46523;-38
2024/01/24 01:40:43;;;;;;;;;0.00;0.00;;;;;13.83;95.32;102152.16;4995433;28;45402;-43
2024/01/24 01:43:13;;;;;;;;;0.00;0.00;;;;;13.80;95.94;102149.75;4995480;28;45376;-39
2024/01/24 01:45:39;;;;;;;;;0.00;0.00;;;;;13.70;96.09;102131.00;4996018;28;45411;-39
2024/01/24 01:48:04;;;;;;;;;0.00;0.00;;;;;13.75;96.99;102146.63;4995749;28;46232;-39
2024/01/24 01:50:30;;;;;;;;;0.00;0.00;;;;;13.70;97.09;102155.91;4994880;28;45390;-40
2024/01/24 01:52:55;;;;;;;;;0.00;0.00;;;;;13.67;97.00;102169.53;4995419;28;45274;-39
2024/01/24 01:55:21;;;;;;;;;1.00;0.00;;;;;13.66;97.66;102175.03;4995659;28;45324;-39
2024/01/24 01:57:47;;;;;;;;;0.00;0.00;;;;;13.66;97.58;102178.53;4995231;28;45286;-39
2024/01/24 02:00:20;;;;;;;;;0.00;0.00;;;;;13.65;97.77;102179.53;4995185;28;45370;-40
2024/01/24 02:02:47;;;;;;;;;0.00;0.00;;;;;13.66;97.30;102175.88;4995035;28;45379;-38
2024/01/24 02:05:13;;;;;;;;;0.00;0.00;;;;;13.65;98.00;102184.88;4995509;28;45407;-39
2024/01/24 02:07:38;;;;;;;;;0.00;0.00;;;;;13.63;97.86;102177.94;4994939;28;45917;-40
2024/01/24 02:10:04;;;;;;;;;0.00;0.00;;;;;13.61;97.22;102190.59;4995010;28;45530;-40
2024/01/24 02:12:29;;;;;;;;;0.00;0.00;;;;;13.56;98.51;102163.41;4994910;28;45348;-40
2024/01/24 02:14:54;;;;;;;;;0.00;0.00;;;;;13.51;98.74;102149.59;4995287;28;45326;-40
2024/01/24 02:17:20;;;;;;;;;0.00;0.00;;;;;13.46;99.13;102139.28;4994793;28;45497;-39
2024/01/24 02:19:45;;;;;;;;;0.00;0.00;;;;;13.41;99.25;102137.03;4994800;28;46460;-39
2024/01/24 02:22:10;;;;;;;;;1.00;0.00;;;;;13.36;100.00;102146.41;4995169;28;45354;-38
2024/01/24 02:24:36;;;;;;;;;0.00;0.00;;;;;13.27;99.13;102140.00;4995394;28;45492;-40
2024/01/24 02:27:01;;;;;;;;;0.00;0.00;;;;;13.25;100.00;102149.16;4994727;28;45376;-39
2024/01/24 02:29:26;;;;;;;;;0.00;0.00;;;;;13.26;100.00;102164.19;4994906;28;45499;-40
2024/01/24 02:31:52;;;;;;;;;0.00;0.00;;;;;13.25;100.00;102151.81;4994974;28;45373;-41
2024/01/24 02:34:17;;;;;;;;;0.00;0.00;;;;;13.28;100.00;102167.59;4994939;28;45309;-39
2024/01/24 02:36:42;;;;;;;;;0.00;0.00;;;;;13.29;100.00;102172.81;4994594;28;45971;-40
2024/01/24 02:39:08;;;;;;;;;0.00;0.00;;;;;13.28;100.00;102163.09;4994725;28;45393;-40
2024/01/24 02:41:33;;;;;;;;;0.00;0.00;;;;;13.35;100.00;102174.09;4994689;28;45350;-39
2024/01/24 02:43:59;;;;;;;;;0.00;0.00;;;;;13.37;100.00;102159.66;4995004;28;45465;-39
2024/01/24 02:46:24;;;;;;;;;0.00;0.00;;;;;13.40;100.00;102161.19;4994406;28;47118;-39
2024/01/24 02:48:50;;;;;;;;;0.00;0.00;;;;;13.44;100.00;102158.16;4994530;28;45275;-39
2024/01/24 02:51:25;;;;;;;;;0.00;0.00;;;;;13.43;100.00;102158.25;4994665;28;45236;-41
2024/01/24 02:53:50;;;;;;;;;0.00;0.00;;;;;13.40;100.00;102143.34;4994992;28;45390;-38
2024/01/24 02:56:16;;;;;;;;;0.00;0.00;;;;;13.52;100.00;102173.50;4994109;28;46551;-40
2024/01/24 02:58:41;;;;;;;;;0.33;0.00;;;;;13.53;100.00;102166.38;4994293;28;45306;-40
2024/01/24 03:01:06;;;;;;;;;0.00;0.00;;;;;13.54;99.91;102162.72;4994302;28;46308;-40
2024/01/24 03:03:32;;;;;;;;;0.00;0.00;;;;;13.57;99.04;102165.09;4994611;28;45311;-40
2024/01/24 03:05:58;;;;;;;;;0.00;0.00;;;;;13.60;99.30;102156.81;4994289;27;46636;-39
2024/01/24 03:08:23;;;;;;;;;0.00;0.00;;;;;13.60;99.44;102163.00;4994053;28;45526;-40
2024/01/24 03:10:48;;;;;;;;;0.00;0.00;;;;;13.62;98.58;102171.75;4994493;28;45332;-40
2024/01/24 03:13:13;;;;;;;;;0.00;0.00;;;;;13.60;98.59;102160.34;4994434;28;45332;-39
2024/01/24 03:15:39;;;;;;;;;0.00;0.00;;;;;13.63;97.91;102165.44;4994097;28;46538;-39
2024/01/24 03:18:04;;;;;;;;;0.00;0.00;;;;;13.65;98.21;102176.84;4994217;28;45425;-38
2024/01/24 03:20:30;;;;;;;;;0.00;0.00;;;;;13.70;97.74;102181.81;4994092;28;45373;-40
2024/01/24 03:22:55;;;;;;;;;0.00;0.00;;;;;13.70;97.84;102182.66;4994284;28;45357;-39
2024/01/24 03:25:21;;;;;;;;;0.00;0.00;;;;;13.72;97.68;102182.50;4994193;28;46168;-38
2024/01/24 03:27:46;;;;;;;;;0.00;0.00;;;;;13.65;97.49;102162.59;4993761;28;45441;-40
2024/01/24 03:30:12;;;;;;;;;0.00;0.00;;;;;13.75;97.67;102181.41;4994344;28;45319;-39
2024/01/24 03:32:38;;;;;;;;;0.00;0.00;;;;;13.77;97.44;102174.09;4994409;28;45174;-39
2024/01/24 03:35:06;;;;;;;;;0.00;0.00;;;;;13.75;97.13;102168.03;4993958;28;46273;-38
2024/01/24 03:37:31;;;;;;;;;0.00;0.00;;;;;13.74;96.87;102167.19;4993968;28;45281;-40
2024/01/24 03:39:56;;;;;;;;;0.00;0.00;;;;;13.76;96.77;102151.84;4994006;28;45172;-40
2024/01/24 03:42:22;;;;;;;;;0.00;0.00;;;;;13.77;96.41;102156.22;4994093;28;45465;-40
2024/01/24 03:44:47;;;;;;;;;0.00;0.00;;;;;13.80;96.26;102147.09;4992822;28;46047;-39
2024/01/24 03:47:12;;;;;;;;;0.00;0.00;;;;;13.72;96.22;102137.88;4993802;28;45338;-40
2024/01/24 03:49:38;;;;;;;;;0.00;0.00;;;;;13.81;96.07;102146.94;4993716;28;45576;-40
2024/01/24 03:52:03;;;;;;;;;0.00;0.00;;;;;13.73;96.03;102134.22;4994105;28;45397;-40
2024/01/24 03:54:28;;;;;;;;;0.00;0.00;;;;;13.84;95.54;102164.56;4993646;28;46997;-39
2024/01/24 03:56:54;;;;;;;;;0.00;0.00;;;;;13.82;95.56;102151.34;4993539;28;45316;-40
2024/01/24 03:59:20;;;;;;;;;0.33;0.00;;;;;13.83;95.74;102158.38;4993778;28;45523;-39
2024/01/24 04:01:45;;;;;;;;;0.00;0.00;;;;;13.86;95.57;102142.06;4993823;28;45568;-40
2024/01/24 04:04:10;;;;;;;;;0.00;0.00;;;;;13.85;95.45;102148.38;4993392;28;45399;-40
2024/01/24 04:06:36;;;;;;;;;0.00;0.00;;;;;13.86;95.13;102146.53;4993574;28;45351;-38
2024/01/24 04:09:03;;;;;;;;;0.00;0.00;;;;;13.90;95.04;102150.63;4993559;28;45673;-40
2024/01/24 04:11:28;;;;;;;;;0.00;0.00;;;;;13.89;95.25;102146.28;4993758;28;45337;-38
2024/01/24 04:13:53;;;;;;;;;0.00;0.00;;;;;13.88;95.17;102142.75;4993175;28;46077;-40
2024/01/24 04:16:19;;;;;;;;;0.00;0.00;;;;;13.90;94.86;102153.31;4993201;28;45207;-39
2024/01/24 04:18:45;;;;;;;;;0.00;0.00;;;;;13.89;95.26;102148.94;4993338;28;45215;-38
2024/01/24 04:21:10;;;;;;;;;0.00;0.00;;;;;13.91;95.09;102147.00;4993412;28;45363;-39
2024/01/24 04:23:36;;;;;;;;;0.00;0.00;;;;;13.91;94.81;102165.72;4992987;28;47079;-40
2024/01/24 04:26:04;;;;;;;;;0.00;0.00;;;;;13.92;94.58;102159.38;4993095;28;45307;-39
2024/01/24 04:28:30;;;;;;;;;1.00;1.00;;;;;13.92;94.73;102156.72;5008077;28;45374;-39
2024/01/24 04:30:56;;;;;;;;;0.00;0.00;;;;;13.92;94.87;102162.06;4993369;28;45416;-40
2024/01/24 04:33:21;;;;;;;;;0.00;0.00;;;;;13.91;94.67;102160.38;4992899;28;46093;-38
2024/01/24 04:35:46;;;;;;;;;0.00;0.00;;;;;13.86;94.83;102158.09;4992822;28;45292;-40
2024/01/24 04:38:12;;;;;;;;;0.00;0.00;;;;;13.85;94.91;102166.25;4992991;28;45386;-38
2024/01/24 04:40:37;;;;;;;;;0.00;0.00;;;;;13.89;94.70;102173.03;4993108;28;45544;-38
2024/01/24 04:43:02;;;;;;;;;0.00;0.00;;;;;13.89;94.18;102184.56;4992680;28;47538;-40
2024/01/24 04:45:28;;;;;;;;;1.67;0.00;;;;;13.91;94.55;102185.31;4992921;28;45420;-39
2024/01/24 04:47:53;;;;;;;;;0.00;0.00;;;;;13.90;94.75;102180.91;4992929;28;45332;-39
2024/01/24 04:50:18;;;;;;;;;0.00;0.00;;;;;13.93;94.38;102195.84;4993032;28;45283;-39
2024/01/24 04:52:43;;;;;;;;;0.00;0.00;;;;;13.94;94.18;102202.91;4992847;28;45282;-40
2024/01/24 04:55:12;;;;;;;;;0.00;0.00;;;;;13.89;93.99;102194.41;4992994;28;45252;-39
2024/01/24 04:57:38;;;;;;;;;0.00;0.00;;;;;13.96;94.11;102203.63;4995882;28;45270;-40
2024/01/24 05:00:07;;;;;;;;;0.00;0.00;;;;;13.92;94.01;102202.19;4995919;28;45379;-39
2024/01/24 05:02:33;;;;;;;;;0.00;0.00;;;;;14.01;93.90;102203.22;4995798;28;45310;-39
2024/01/24 05:04:58;;;;;;;;;0.00;0.00;;;;;14.00;93.84;102217.59;4995714;28;45331;-40
2024/01/24 05:07:24;;;;;;;;;0.00;0.00;;;;;14.03;93.70;102209.28;4995964;28;45287;-39
2024/01/24 05:09:49;;;;;;;;;0.00;0.00;;;;;14.01;93.73;102204.06;4996029;28;45523;-40
2024/01/24 05:12:15;;;;;;;;;0.00;0.00;;;;;14.03;93.58;102220.84;4995260;28;46419;-39
2024/01/24 05:14:41;;;;;;;;;0.00;0.00;;;;;14.07;93.52;102222.25;4995614;28;45459;-39
2024/01/24 05:17:06;;;;;;;;;0.00;0.00;;;;;14.05;93.37;102221.53;5010768;28;45366;-38
2024/01/24 05:19:32;;;;;;;;;0.00;0.00;;;;;14.10;93.38;102234.53;4995729;28;45480;-40
2024/01/24 05:21:57;;;;;;;;;0.00;0.00;;;;;14.09;93.04;102239.03;4995589;28;46316;-39
2024/01/24 05:24:23;;;;;;;;;0.00;0.00;;;;;14.10;93.18;102238.03;4995617;28;45354;-39
2024/01/24 05:26:48;;;;;;;;;0.00;0.00;;;;;14.12;92.90;102244.13;4995869;28;45433;-40
2024/01/24 05:29:13;;;;;;;;;0.00;0.00;;;;;14.13;92.98;102244.97;4995578;28;45388;-40
2024/01/24 05:31:39;;;;;;;;;0.00;0.00;;;;;14.15;92.72;102243.00;4995310;28;46270;-40
2024/01/24 05:34:04;;;;;;;;;1.00;0.00;;;;;14.15;92.78;102249.19;4995275;28;45407;-39
2024/01/24 05:36:30;;;;;;;;;0.00;0.00;;;;;14.14;92.89;102252.84;4995418;28;45365;-39
2024/01/24 05:38:55;;;;;;;;;0.00;0.00;;;;;14.15;93.07;102269.75;4995476;28;46008;-40
2024/01/24 05:41:20;;;;;;;;;0.00;0.00;;;;;14.14;93.13;102279.63;4995385;28;45444;-39
2024/01/24 05:43:46;;;;;;;;;1.00;0.00;;;;;14.14;93.41;102274.25;4995024;28;45444;-40
2024/01/24 05:46:11;;;;;;;;;0.00;0.00;;;;;14.15;93.25;102273.28;4995131;28;45259;-39
2024/01/24 05:48:36;;;;;;;;;0.00;0.00;;;;;14.16;94.03;102283.03;5010717;28;45317;-40
2024/01/24 05:51:02;;;;;;;;;0.00;0.00;;;;;14.15;93.62;102286.66;4994947;28;45401;-40
2024/01/24 05:53:27;;;;;;;;;0.00;0.00;;;;;14.14;94.00;102303.69;4995034;28;45299;-39
2024/01/24 05:55:53;;;;;;;;;19.67;14.67;;;;;14.14;94.17;102290.31;4995068;28;45382;-40
2024/01/24 05:58:18;;;;;;;;;1.00;0.00;;;;;14.14;94.09;102289.47;4995179;28;45455;-40
2024/01/24 06:00:43;;;;;;;;;0.00;0.00;;;;;14.15;94.26;102297.38;4995117;28;45970;-41
2024/01/24 06:03:09;;;;;;;;;0.00;0.00;;;;;13.97;94.59;102274.88;4995200;28;45306;-40
2024/01/24 06:05:34;;;;;;;;;0.00;0.00;;;;;14.13;94.31;102302.00;4995267;28;45629;-39
2024/01/24 06:07:59;;;;;;;;;0.00;0.00;;;;;14.10;94.30;102306.78;4994762;28;45347;-40
2024/01/24 06:10:25;;;;;;;;;0.00;0.00;;;;;14.07;94.72;102299.84;4994774;28;46323;-38
2024/01/24 06:12:50;;;;;;;;;0.00;0.00;;;;;14.13;94.74;102315.41;4995039;28;45376;-40
2024/01/24 06:15:18;;;;;;;;;0.00;0.00;;;;;14.14;94.69;102318.91;4995008;28;45398;-39
2024/01/24 06:17:43;;;;;;;;;0.33;0.00;;;;;14.11;95.01;102322.69;4995182;28;45318;-40
2024/01/24 06:20:09;;;;;;;;;0.00;0.00;;;;;14.12;95.61;102324.41;4994849;28;46034;-40
2024/01/24 06:22:35;;;;;;;;;0.00;0.00;;;;;14.12;96.06;102336.94;4994900;28;45381;-38
2024/01/24 06:25:02;;;;;;;;;0.00;0.00;;;;;14.12;96.48;102347.66;4994970;28;45389;-40
2024/01/24 06:27:28;;;;;;;;;0.00;0.00;;;;;14.11;96.55;102344.09;4995155;28;45499;-40
2024/01/24 06:29:53;;;;;;;;;0.00;0.00;;;;;14.08;97.67;102371.16;4994590;28;45942;-39
2024/01/24 06:32:18;;;;;;;;;1.00;0.00;;;;;14.07;98.83;102368.56;4995067;27;45305;-40
2024/01/24 06:34:44;;;;;;;;;0.00;0.00;;;;;14.04;99.17;102374.22;4994616;28;45443;-40
2024/01/24 06:37:09;;;;;;;;;0.00;0.00;;;;;14.00;99.09;102378.13;4995292;28;45380;-40
2024/01/24 06:39:35;;;;;;;;;0.00;0.00;;;;;13.90;99.80;102378.03;4995361;28;45262;-40
2024/01/24 06:42:00;;;;;;;;;0.00;0.00;;;;;13.93;100.00;102388.47;4996670;28;46026;-39
2024/01/24 06:44:26;;;;;;;;;0.00;0.00;;;;;13.87;100.00;102389.84;4999165;28;45485;-38
2024/01/24 06:46:51;;;;;;;;;0.00;0.00;;;;;13.89;100.00;102405.75;4995041;28;45433;-38
2024/01/24 06:49:17;;;;;;;;;0.00;0.00;;;;;13.88;100.00;102402.25;4994201;28;45578;-38
2024/01/24 06:51:42;;;;;;;;;0.00;0.00;;;;;13.85;100.00;102412.34;4994587;28;45337;-39
2024/01/24 06:54:09;;;;;;;;;0.00;0.00;;;;;13.85;100.00;102412.34;4994555;28;45511;-40
2024/01/24 06:56:35;;;;;;;;;0.00;0.00;;;;;13.82;100.00;102423.28;4994656;28;45350;-40
2024/01/24 06:59:02;;;;;;;;;0.33;0.00;;;;;13.76;100.00;102418.47;4994073;28;47452;-40
2024/01/24 07:01:27;;;;;;;;;1.00;0.00;;;;;13.70;100.00;102418.00;4994239;28;45475;-39
2024/01/24 07:03:53;;;;;;;;;0.00;0.00;;;;;13.73;100.00;102424.91;4994597;28;45330;-39
2024/01/24 07:06:18;;;;;;;;;0.67;0.00;;;;;13.67;100.00;102426.25;4994312;28;45314;-39
2024/01/24 07:08:44;;;;;;;;;0.00;0.00;;;;;13.67;100.00;102417.38;4994554;28;45362;-39
2024/01/24 07:11:09;;;;;;;;;0.67;0.00;;;;;13.68;100.00;102427.94;4994465;28;45271;-39
2024/01/24 07:13:36;;;;;;;;;1.00;0.00;;;;;13.65;100.00;102425.56;4994282;28;45399;-39
2024/01/24 07:16:04;;;;;;;;;0.00;0.00;;;;;13.68;100.00;102427.94;4994272;28;45364;-40
2024/01/24 07:18:29;;;;;;;;;0.33;0.00;;;;;13.64;100.00;102421.16;4993519;28;46239;-39
2024/01/24 07:20:54;;;;;;;;;0.00;0.00;;;;;13.64;99.75;102425.66;4993168;28;45404;-40
2024/01/24 07:23:20;;;;;;;;;0.00;0.00;;;;;13.59;99.36;102426.03;4994510;28;45411;-39
2024/01/24 07:25:45;;;;;;;;;0.33;0.00;;;;;13.59;99.67;102428.72;4994336;28;45444;-40
2024/01/24 07:28:11;;;;;;;;;0.00;0.00;;;;;13.56;98.36;102430.78;4993396;28;45524;-39
2024/01/24 07:30:36;;;;;;;;;0.67;0.00;;;;;13.45;98.52;102437.84;4993720;28;45489;-39
2024/01/24 07:33:03;;;;;;;;;1.67;0.00;;;;;13.39;98.54;102437.50;4994119;28;45384;-39
2024/01/24 07:35:29;;;;;;;;;0.00;0.00;;;;;13.33;98.50;102451.38;4994597;28;45475;-39
2024/01/24 07:37:54;;;;;;;;;1.00;0.67;;;;;13.25;98.30;102445.78;4993607;28;46475;-39
2024/01/24 07:40:19;;;;;;;;;1.67;1.67;;;;;13.23;98.03;102449.44;4993916;28;45203;-40
2024/01/24 07:42:45;;;;;;;;;1.33;1.00;;;;;13.19;98.55;102466.66;4993854;28;45180;-37
2024/01/24 07:45:10;;;;;;;;;1.00;0.00;;;;;13.17;98.46;102462.38;4994089;28;45317;-39
2024/01/24 07:47:35;;;;;;;;;2.00;1.00;;;;;13.13;98.81;102460.94;4993802;28;47435;-39
2024/01/24 07:50:03;;;;;;;;;1.00;0.00;;;;;13.04;98.86;102470.53;4993466;28;45238;-39
2024/01/24 07:52:28;;;;;;;;;0.00;0.00;;;;;13.09;98.94;102473.69;4993883;28;45273;-40
2024/01/24 07:54:53;;;;;;;;;1.00;0.00;;;;;13.10;98.51;102488.72;4994009;28;45268;-39
2024/01/24 07:57:19;;;;;;;;;0.00;0.00;;;;;13.09;98.71;102489.69;4993553;28;45351;-39
2024/01/24 07:59:44;;;;;;;;;0.00;0.00;;;;;13.08;98.24;102492.50;4993568;28;45464;-39
2024/01/24 08:02:09;;;;;;;;;0.00;0.00;;;;;13.07;98.03;102498.84;4993494;28;45391;-40
2024/01/24 08:04:34;;;;;;;;;2.00;1.00;;;;;13.09;97.65;102510.22;4993936;28;45460;-40
2024/01/24 08:07:00;;;;;;;;;3.67;0.67;;;;;13.04;97.63;102499.91;4993252;28;45395;-40
2024/01/24 08:09:25;;;;;;;;;3.00;0.00;;;;;13.12;97.55;102508.19;4993407;28;45449;-40
2024/01/24 08:11:50;;;;;;;;;2.67;0.00;;;;;13.12;97.29;102516.19;4993455;28;45589;-40
2024/01/24 08:14:16;;;;;;;;;2.33;1.00;;;;;13.12;96.61;102505.50;4993441;28;45673;-38
2024/01/24 08:17:05;;;;;;;;;0.67;0.67;;;;;13.13;96.84;102511.69;4993282;28;46094;-38
2024/01/24 08:19:31;;;;;;;;;0.33;0.33;;;;;13.18;96.24;102515.69;4993461;28;45227;-40
2024/01/24 08:21:57;;;;;;;;;0.00;0.00;;;;;13.19;95.29;102521.91;4993435;28;45231;-39
2024/01/24 08:24:22;;;;;;;;;0.33;0.33;;;;;13.17;95.16;102515.81;4993499;28;45335;-40
2024/01/24 08:26:51;;;;;;;;;2.00;0.00;;;;;13.23;94.37;102528.72;4994978;27;45330;-38
2024/01/24 08:29:17;;;;;;;;;1.00;1.00;;;;;13.25;94.05;102540.16;4992908;28;45856;-40
2024/01/24 08:31:42;;;;;;;;;2.00;0.00;;;;;13.32;92.80;102548.56;4994810;28;45334;-38
2024/01/24 08:34:08;;;;;;;;;1.67;0.00;;;;;13.32;92.34;102535.19;4996302;28;45480;-39
2024/01/24 08:36:33;;;;;;;;;1.00;1.00;;;;;13.46;90.05;102541.13;4995545;28;45896;-38
2024/01/24 08:38:59;;;;;;;;;1.33;0.00;;;;;13.46;89.73;102548.31;4995859;28;45398;-39
2024/01/24 08:41:24;;;;;;;;;1.00;1.00;;;;;13.42;88.88;102534.34;4996180;28;45405;-39
2024/01/24 08:43:50;;;;;;;;;2.67;1.00;;;;;13.54;87.98;102550.38;4996414;28;45431;-39
2024/01/24 08:46:15;;;;;;;;;0.67;0.00;;;;;13.58;88.65;102555.38;5010938;28;47112;-39
2024/01/24 08:48:41;;;;;;;;;2.33;2.00;;;;;13.54;86.43;102540.53;4996006;28;45452;-39
2024/01/24 08:51:07;;;;;;;;;1.00;1.00;;;;;13.69;86.02;102547.34;4995808;28;45374;-38
2024/01/24 08:53:32;;;;;;;;;1.00;0.00;;;;;13.90;84.70;102563.47;4996399;27;45564;-40
2024/01/24 08:55:59;;;;;;;;;0.33;0.33;;;;;14.08;83.89;102553.13;4995908;28;46583;-39
2024/01/24 08:58:24;;;;;;;;;3.00;1.00;;;;;14.17;82.31;102549.69;4995682;28;45413;-40
2024/01/24 09:00:50;;;;;;;;;3.00;1.00;;;;;14.28;82.93;102540.75;4994786;28;45593;-40
2024/01/24 09:03:15;;;;;;;;;1.00;1.00;;;;;14.23;82.28;102551.00;4995524;28;45615;-40
2024/01/24 09:05:41;;;;;;;;;3.67;1.00;;;;;14.14;82.60;102552.59;4995732;28;46301;-39
2024/01/24 09:08:07;;;;;;;;;2.67;1.00;;;;;14.11;81.84;102558.19;4995443;28;45418;-39
2024/01/24 09:10:32;;;;;;;;;3.33;1.00;;;;;14.11;81.61;102563.53;4995589;27;45409;-40
2024/01/24 09:12:57;;;;;;;;;3.00;1.00;;;;;14.09;79.92;102564.66;4996086;28;45380;-38
2024/01/24 09:15:23;;;;;;;;;1.00;1.00;;;;;14.10;80.02;102569.88;4995602;28;46097;-38
2024/01/24 09:17:48;;;;;;;;;6.00;1.00;;;;;14.12;79.20;102583.16;4995224;28;49423;-39
2024/01/24 09:20:14;;;;;;;;;1.00;1.00;;;;;14.13;79.07;102585.69;4996076;28;45408;-40
2024/01/24 09:22:39;;;;;;;;;2.33;2.33;;;;;14.19;78.49;102576.31;4995761;28;45411;-40
2024/01/24 09:25:05;;;;;;;;;1.00;1.00;;;;;14.37;79.15;102592.72;4995423;28;46490;-39
2024/01/24 09:27:31;;;;;;;;;3.33;2.00;;;;;14.45;78.47;102587.53;4995555;28;45331;-41
2024/01/24 09:29:56;;;;;;;;;7.00;2.00;;;;;14.66;77.19;102601.88;4995570;27;45323;-40
2024/01/24 09:32:21;;;;;;;;;5.33;1.00;;;;;14.89;77.47;102612.50;4995714;28;45448;-38
2024/01/24 09:34:47;;;;;;;;;4.33;1.00;;;;;15.21;76.58;102594.53;4994949;28;55246;-40
2024/01/24 09:37:12;;;;;;;;;3.00;1.00;;;;;17.24;71.69;102600.47;4995248;28;45429;-38
2024/01/24 09:39:38;;;;;;;;;2.75;0.00;;;;;18.97;66.32;102605.03;4995377;28;45521;-39
2024/01/24 09:42:04;;;;;;;;;2.50;1.00;;;;;19.99;61.93;102593.50;4994665;28;45302;-39
2024/01/24 09:44:32;;;;;;;;;6.25;1.75;;;;;20.54;59.84;102599.22;4995227;28;46299;-40
2024/01/24 09:46:59;;;;;;;;;1.75;1.75;;;;;20.29;56.81;102586.66;4995027;28;45475;-41
2024/01/24 09:49:25;;;;;;;;;1.50;0.00;;;;;20.03;59.47;102590.31;4995151;28;45388;-39
2024/01/24 09:51:52;;;;;;;;;6.25;2.00;;;;;20.23;56.04;102603.53;4995584;28;45334;-39
2024/01/24 09:54:17;;;;;;;;;5.00;1.75;;;;;20.07;55.38;102617.84;4995002;28;46236;-40
2024/01/24 09:56:44;;;;;;;;;4.25;2.00;;;;;21.04;54.54;102606.34;5009980;28;45399;-39
2024/01/24 09:59:11;;;;;;;;;3.00;2.00;;;;;22.02;50.66;102626.91;4995252;28;45395;-39
2024/01/24 10:01:40;;;;;;;;;5.25;3.00;;;;;22.19;49.93;102625.81;4995132;28;45436;-39
2024/01/24 10:04:06;;;;;;;;;6.60;3.00;;;;;20.97;51.88;102628.81;4994826;28;46177;-39
2024/01/24 10:06:32;;;;;;;;;8.00;2.40;;;;;19.85;54.78;102619.28;4994718;28;45292;-40
2024/01/24 10:08:58;;;;;;;;;4.00;1.25;;;;;18.93;56.62;102626.94;4995113;28;45278;-40
2024/01/24 10:11:27;;;;;;;;;4.25;3.25;;;;;19.11;56.13;102647.63;4995488;28;45318;-38
2024/01/24 10:13:59;;;;;;;;;6.00;2.00;;;;;19.37;55.82;102650.34;4994931;28;47129;-37
2024/01/24 10:16:25;;;;;;;;;3.80;2.40;;;;;20.24;53.39;102649.31;4995158;28;45494;-38
2024/01/24 10:18:52;;;;;;;;;3.80;2.00;;;;;21.18;51.00;102638.09;4994879;28;45390;-39
2024/01/24 10:21:17;;;;;;;;;5.25;2.25;;;;;22.15;48.61;102649.72;4995226;28;45478;-38
2024/01/24 10:23:42;;;;;;;;;5.00;1.00;;;;;22.73;46.97;102654.81;4994564;28;54505;-40
2024/01/24 10:26:08;;;;;;;;;4.00;1.25;;;;;22.79;47.14;102649.50;4994760;28;45326;-39
2024/01/24 10:28:34;;;;;;;;;3.00;1.80;;;;;22.65;45.39;102653.84;4994758;28;45517;-40
2024/01/24 10:31:02;;;;;;;;;5.50;3.00;;;;;21.31;47.52;102658.38;4995178;28;45415;-40
2024/01/24 10:33:28;;;;;;;;;2.20;2.00;;;;;20.27;50.24;102667.03;4994435;28;46581;-39
2024/01/24 10:35:56;;;;;;;;;2.80;2.40;;;;;19.58;51.53;102664.31;4994834;28;45276;-40
2024/01/24 10:38:24;;;;;;;;;6.60;3.40;;;;;19.62;53.24;102668.44;4994814;28;45314;-39
2024/01/24 10:40:55;;;;;;;;;7.50;2.75;;;;;20.57;53.10;102649.44;4994640;28;45424;-39
2024/01/24 10:43:23;;;;;;;;;3.20;2.80;;;;;20.03;51.36;102675.91;4994764;28;46336;-38
2024/01/24 10:45:49;;;;;;;;;9.60;2.40;;;;;19.20;52.08;102676.38;4994501;28;45365;-38
2024/01/24 10:48:16;;;;;;;;;2.40;2.40;;;;;18.54;53.79;102677.59;4994550;28;45410;-40
2024/01/24 10:50:42;;;;;;;;;7.00;3.00;;;;;18.23;55.31;102684.28;4994710;28;45304;-39
2024/01/24 10:53:09;;;;;;;;;4.25;3.00;;;;;17.78;55.59;102690.41;4994046;28;46418;-39
2024/01/24 10:55:36;;;;;;;;;4.20;1.80;;;;;17.56;56.23;102687.03;4994375;28;45467;-39
2024/01/24 10:58:02;;;;;;;;;2.25;2.00;;;;;17.82;56.19;102687.28;4994618;28;45306;-38
2024/01/24 11:00:29;;;;;;;;;2.00;2.00;;;;;19.31;53.25;102688.78;4994562;28;45460;-39
2024/01/24 11:02:54;;;;;;;;;7.75;2.25;;;;;20.37;50.72;102670.47;4994143;28;46784;-39
2024/01/24 11:05:27;;;;;;;;;2.75;2.00;;;;;21.33;50.13;102670.78;4994593;28;45223;-40
2024/01/24 11:08:02;;;;;;;;;5.40;2.20;;;;;21.77;49.01;102661.38;4994496;28;45307;-39
2024/01/24 11:10:35;;;;;;;;;5.00;1.60;;;;;21.55;47.68;102662.97;4994558;28;45489;-38
2024/01/24 11:13:01;;;;;;;;;5.40;2.60;;;;;21.35;48.17;102668.72;4994225;28;46319;-39
2024/01/24 11:15:29;;;;;;;;;3.20;2.80;;;;;21.12;48.57;102668.56;4994085;28;45399;-39
2024/01/24 11:18:25;;;;;;;;;9.40;5.60;;;;;21.27;50.48;102665.16;4994196;28;45365;-39